createdAt,value
2023-03-21T00:02:06.064Z,98770.67
2023-03-21T00:07:08.483Z,98768.30
2023-03-21T00:12:14.765Z,98773.17
2023-03-21T00:17:33.307Z,98772.60
2023-03-21T00:22:36.166Z,98769.77
2023-03-21T00:27:57.245Z,98772.80
2023-03-21T00:33:21.722Z,98770.18
2023-03-21T00:38:26.704Z,98767.13
2023-03-21T00:43:32.926Z,98766.45
2023-03-21T00:48:45.969Z,98763.56
2023-03-21T00:53:49.701Z,98758.62
2023-03-21T00:58:52.588Z,98753.65
2023-03-21T01:04:05.345Z,98755.60
2023-03-21T01:09:27.241Z,98754.77
2023-03-21T01:14:44.863Z,98746.79
2023-03-21T01:19:52.539Z,98744.71
2023-03-21T01:25:19.314Z,98739.29
2023-03-21T01:30:33.916Z,98736.77
2023-03-21T01:36:09.997Z,98733.21
2023-03-21T01:41:45.830Z,98734.02
2023-03-21T01:47:18.937Z,98728.41
2023-03-21T01:52:42.002Z,98725.21
2023-03-21T01:58:07.424Z,98716.73
2023-03-21T02:03:50.077Z,98717.13
2023-03-21T02:09:29.057Z,98713.66
2023-03-21T02:14:36.594Z,98712.61
2023-03-21T02:19:55.978Z,98711.95
2023-03-21T02:25:40.000Z,98715.91
2023-03-21T02:31:46.664Z,98714.31
2023-03-21T02:37:11.384Z,98722.40
2023-03-21T02:42:22.864Z,98719.85
2023-03-21T02:47:53.135Z,98727.48
2023-03-21T02:53:20.168Z,98720.71
2023-03-21T02:58:32.888Z,98728.87
2023-03-21T03:04:04.757Z,98726.77
2023-03-21T03:09:58.895Z,98726.38
2023-03-21T03:15:25.230Z,98725.60
2023-03-21T03:21:39.098Z,98725.00
2023-03-21T03:27:23.430Z,98725.02
2023-03-21T03:33:09.454Z,98724.92
2023-03-21T03:38:45.055Z,98718.96
2023-03-21T03:44:26.106Z,98718.32
2023-03-21T03:50:26.684Z,98714.83
2023-03-21T03:55:49.900Z,98714.77
2023-03-21T04:01:00.660Z,98705.17
2023-03-21T04:06:29.104Z,98706.86
2023-03-21T04:12:13.453Z,98713.23
2023-03-21T04:17:30.874Z,98707.46
2023-03-21T04:22:46.265Z,98716.51
2023-03-21T04:28:06.776Z,98722.92
2023-03-21T04:33:38.512Z,98718.71
2023-03-21T04:39:12.957Z,98719.22
2023-03-21T04:44:40.946Z,98719.39
2023-03-21T04:49:56.397Z,98710.33
2023-03-21T04:55:10.422Z,98711.03
2023-03-21T05:00:30.294Z,98712.17
2023-03-21T05:05:54.468Z,98712.73
2023-03-21T05:10:57.940Z,98714.02
2023-03-21T05:16:04.088Z,98713.09
2023-03-21T05:21:30.178Z,98715.23
2023-03-21T05:26:32.994Z,98717.92
2023-03-21T05:31:50.349Z,98723.48
2023-03-21T05:37:07.306Z,98724.16
2023-03-21T05:42:21.476Z,98723.27
2023-03-21T05:47:26.857Z,98720.75
2023-03-21T05:52:35.612Z,98725.06
2023-03-21T05:57:44.861Z,98723.24
2023-03-21T06:03:14.325Z,98724.98
2023-03-21T06:09:28.790Z,98731.77
2023-03-21T06:14:33.811Z,98736.89
2023-03-21T06:20:10.619Z,98740.70
2023-03-21T06:25:26.799Z,98746.70
2023-03-21T06:30:34.372Z,98749.04
2023-03-21T06:36:10.286Z,98753.00
2023-03-21T06:41:55.928Z,98755.52
2023-03-21T06:47:08.906Z,98756.73
2023-03-21T06:52:15.372Z,98759.09
2023-03-21T06:57:46.524Z,98770.17
2023-03-21T07:02:53.831Z,98772.14
2023-03-21T07:08:03.645Z,98780.58
2023-03-21T07:13:12.016Z,98782.55
2023-03-21T07:18:43.297Z,98785.55
2023-03-21T07:23:52.224Z,98786.98
2023-03-21T07:29:00.685Z,98788.73
2023-03-21T07:34:23.887Z,98784.64
2023-03-21T07:39:34.780Z,98784.09
2023-03-21T07:45:10.651Z,98787.34
2023-03-21T07:50:49.165Z,98792.41
2023-03-21T07:56:03.337Z,98797.74
2023-03-21T08:01:08.805Z,98796.52
2023-03-21T08:06:31.298Z,98797.30
2023-03-21T08:11:33.806Z,98800.95
2023-03-21T08:16:36.628Z,98799.30
2023-03-21T08:21:40.104Z,98805.80
2023-03-21T08:26:46.091Z,98808.77
2023-03-21T08:31:56.255Z,98810.25
2023-03-21T08:37:03.022Z,98807.56
2023-03-21T08:42:05.969Z,98813.85
2023-03-21T08:47:20.439Z,98816.62
2023-03-21T08:52:23.830Z,98821.92
2023-03-21T08:57:29.128Z,98819.23
2023-03-21T09:02:31.907Z,98819.69
2023-03-21T09:07:50.662Z,98823.02
2023-03-21T09:12:55.918Z,98827.36
2023-03-21T09:18:13.157Z,98827.10
2023-03-21T09:23:32.049Z,98835.85
2023-03-21T09:28:43.268Z,98839.40
2023-03-21T09:33:46.384Z,98841.87
2023-03-21T09:38:52.602Z,98847.32
2023-03-21T09:44:14.437Z,98847.71
2023-03-21T09:50:17.268Z,98853.83
2023-03-21T09:55:36.696Z,98854.52
2023-03-21T10:00:48.653Z,98849.15
2023-03-21T10:06:01.163Z,98841.63
2023-03-21T10:11:34.849Z,98845.22
2023-03-21T10:16:59.746Z,98842.68
2023-03-21T10:22:05.462Z,98843.58
2023-03-21T10:27:09.954Z,98847.08
2023-03-21T10:32:25.346Z,98847.14
2023-03-21T10:37:30.730Z,98847.54
2023-03-21T10:42:50.403Z,98847.38
2023-03-21T10:47:55.918Z,98848.69
2023-03-21T10:53:01.837Z,98844.38
2023-03-21T10:58:10.915Z,98848.02
2023-03-21T11:03:34.255Z,98846.30
2023-03-21T11:09:03.816Z,98848.19
2023-03-21T11:14:09.584Z,98847.95
2023-03-21T11:19:16.151Z,98848.42
2023-03-21T11:24:20.200Z,98845.91
2023-03-21T11:29:39.278Z,98846.51
2023-03-21T11:34:48.836Z,98848.13
2023-03-21T11:40:36.438Z,98839.56
2023-03-21T11:45:58.826Z,98838.23
2023-03-21T11:51:19.224Z,98833.12
2023-03-21T11:56:49.551Z,98831.01
2023-03-21T12:02:16.528Z,98827.73
2023-03-21T12:07:44.166Z,98829.91
2023-03-21T12:13:03.926Z,98822.08
2023-03-21T12:19:00.919Z,98820.39
2023-03-21T12:24:18.614Z,98819.17
2023-03-21T12:29:28.185Z,98805.83
2023-03-21T12:34:36.615Z,98806.02
2023-03-21T12:39:40.875Z,98800.27
2023-03-21T12:44:52.359Z,98799.77
2023-03-21T12:50:13.906Z,98793.21
2023-03-21T12:55:23.963Z,98788.08
2023-03-21T13:00:28.758Z,98785.96
2023-03-21T13:05:55.207Z,98774.52
2023-03-21T13:11:00.254Z,98765.42
2023-03-21T13:16:23.556Z,98770.97
2023-03-21T13:21:55.786Z,98771.10
2023-03-21T13:27:21.105Z,98765.85
2023-03-21T13:32:39.179Z,98761.91
2023-03-21T13:37:51.817Z,98758.38
2023-03-21T13:43:22.113Z,98756.92
2023-03-21T13:48:49.431Z,98759.16
2023-03-21T13:54:17.642Z,98756.88
2023-03-21T13:59:38.328Z,98750.98
2023-03-21T14:05:00.191Z,98741.80
2023-03-21T14:10:35.675Z,98744.05
2023-03-21T14:16:12.765Z,98736.66
2023-03-21T14:21:24.370Z,98735.89
2023-03-21T14:32:24.904Z,98735.86
2023-03-21T14:37:41.164Z,98733.68
2023-03-21T14:42:48.500Z,98730.75
2023-03-21T14:48:18.837Z,98728.83
2023-03-21T14:53:30.577Z,98730.35
2023-03-21T14:58:46.200Z,98730.58
2023-03-21T15:03:53.099Z,98728.56
2023-03-21T15:09:04.192Z,98730.91
2023-03-21T15:14:30.385Z,98728.23
2023-03-21T15:19:37.418Z,98725.44
2023-03-21T15:24:55.913Z,98723.84
2023-03-21T15:29:58.807Z,98715.30
2023-03-21T15:35:08.705Z,98713.13
2023-03-21T15:40:37.414Z,98712.21
2023-03-21T15:45:56.202Z,98712.15
2023-03-21T15:51:05.978Z,98702.64
2023-03-21T15:56:20.263Z,98700.23
2023-03-21T16:01:26.553Z,98696.70
2023-03-21T16:06:35.221Z,98695.62
2023-03-21T16:11:49.392Z,98695.27
2023-03-21T16:16:51.660Z,98687.08
2023-03-21T16:21:54.262Z,98692.48
2023-03-21T16:26:59.314Z,98690.97
2023-03-21T16:32:06.136Z,98698.86
2023-03-21T16:37:12.367Z,98708.98
2023-03-21T16:42:14.633Z,98713.60
2023-03-21T16:47:23.840Z,98714.75
2023-03-21T16:52:50.418Z,98716.75
2023-03-21T16:57:53.982Z,98719.58
2023-03-21T17:03:03.018Z,98726.23
2023-03-21T17:08:06.513Z,98729.91
2023-03-21T17:13:08.676Z,98729.15
2023-03-21T17:18:21.204Z,98731.50
2023-03-21T17:23:23.542Z,98733.75
2023-03-21T17:28:28.243Z,98741.52
2023-03-21T17:33:33.246Z,98744.91
2023-03-21T17:38:51.564Z,98742.73
2023-03-21T17:44:03.126Z,98744.43
2023-03-21T17:49:06.525Z,98745.56
2023-03-21T17:54:09.484Z,98743.77
2023-03-21T17:59:14.258Z,98742.21
2023-03-21T18:04:21.581Z,98740.81
2023-03-21T18:09:58.014Z,98741.80
2023-03-21T18:15:04.196Z,98742.85
2023-03-21T18:20:10.339Z,98747.87
2023-03-21T18:25:20.519Z,98745.50
2023-03-21T18:30:56.937Z,98745.77
2023-03-21T18:36:13.600Z,98747.27
2023-03-21T18:41:19.829Z,98749.56
2023-03-21T18:46:30.518Z,98750.13
2023-03-21T18:51:33.014Z,98755.67
2023-03-21T18:57:27.464Z,98753.70
2023-03-21T19:02:03.237Z,98752.48
2023-03-21T19:07:08.091Z,98754.36
2023-03-21T19:12:10.556Z,98765.20
2023-03-21T19:18:15.299Z,98770.66
2023-03-21T19:22:45.157Z,98772.08
2023-03-21T19:28:00.738Z,98773.13
2023-03-21T19:33:05.302Z,98773.30
2023-03-21T19:38:07.926Z,98772.51
2023-03-21T19:43:32.126Z,98765.54
2023-03-21T19:48:44.814Z,98757.00
2023-03-21T19:53:50.318Z,98755.56
2023-03-21T19:58:52.995Z,98757.30
2023-03-21T20:03:58.798Z,98758.93
2023-03-21T20:14:24.871Z,98761.05
2023-03-21T20:19:27.239Z,98762.64
2023-03-21T20:24:31.648Z,98760.64
2023-03-21T20:30:10.777Z,98759.31
2023-03-21T20:36:16.392Z,98755.92
2023-03-21T20:40:55.369Z,98755.98
2023-03-21T20:46:12.793Z,98751.61
2023-03-21T20:56:42.895Z,98746.95
2023-03-21T21:01:45.230Z,98746.73
2023-03-21T21:06:50.903Z,98742.65
2023-03-21T21:12:06.562Z,98734.91
2023-03-21T21:22:59.649Z,98732.33
2023-03-21T21:28:09.170Z,98733.92
2023-03-21T21:33:11.473Z,98729.93
2023-03-21T21:38:23.443Z,98720.79
2023-03-21T21:43:27.842Z,98715.83
2023-03-21T21:48:34.124Z,98715.57
2023-03-21T21:53:36.951Z,98703.76
2023-03-21T21:58:46.089Z,98699.39
2023-03-21T22:03:48.684Z,98694.59
2023-03-21T22:08:52.133Z,98692.36
2023-03-21T22:14:01.686Z,98705.97
2023-03-21T22:19:04.305Z,98715.48
2023-03-21T22:24:09.803Z,98711.70
2023-03-21T22:29:14.645Z,98713.52
2023-03-21T22:34:17.140Z,98714.32
2023-03-21T22:39:26.481Z,98716.75
2023-03-21T22:44:38.934Z,98708.27
2023-03-21T22:49:46.368Z,98705.67
2023-03-21T22:54:55.662Z,98712.05
2023-03-21T23:00:01.454Z,98704.11
2023-03-21T23:05:08.971Z,98698.03
2023-03-21T23:10:13.446Z,98692.12
2023-03-21T23:15:25.429Z,98692.77
2023-03-21T23:20:27.627Z,98693.91
2023-03-21T23:25:55.739Z,98700.01
2023-03-21T23:30:58.210Z,98702.70
2023-03-21T23:36:03.435Z,98703.97
2023-03-21T23:41:18.950Z,98706.22
2023-03-21T23:46:23.686Z,98707.98
2023-03-21T23:51:28.889Z,98705.98
2023-03-21T23:56:35.763Z,98695.02
